Aérodrome :
LOGIN :

S'inscrire | Disclaimer

   EN    FR    IT 

 










Légende :    VFR   VFR Marginal   IFR   IFR Intensif   IFR Très Intensif
Visi : 
Plafond : 
>= 8 km
>= 3000ft
5 à 8 km
1000 à 3000 ft
1500m à 5 km
500 à 1000 ft
800 à 1500m
200 à 500 ft
< 800m
< 200 ft
Symboles :   Orages  Brouillard  Fortes neiges  Fortes précipitations  Vent > 20 kt
SIGMETs :   Divers  Orages  Givrage  Turbulence  Onde Orograph.  Cendres Volcan.






- Altitude de l'aérodrome : 34 ft
- Code IATA : KRF


ESNK - Kramfors Sollefteå

DERNIER METAR :
  • 240820Z 28003KT 9999 OVC014 09/08 Q1001

METARs EXPIRÉS :
  • 240750Z VRB02KT 9999 OVC016 09/08 Q1001
  • 240720Z AUTO VRB02KT 9999 OVC016/// 09/08 Q1002
  • 240650Z AUTO 02004KT 340V050 9999 OVC017/// 08/08 Q1002 RERA
  • 240620Z AUTO 29004KT 9999 BKN019/// OVC023/// 08/08 Q1002
  • 240550Z AUTO 33003KT 9999 -RA FEW015/// BKN020/// OVC024/// 08/07 Q1002 RESHRA

Prévision TAF périmée.



MET'MAP, la Météo Aéronautique d'un coup d'oeil ! - Copyright ORBIFLY Décembre 2007 - Disclaimer

ORBIFLY MET'MAP TEAM :

Programmation & Développement : Alexandra Zaïnal
Sur une idée originale de : Baudouin d'Aumeries
Assistance à la programmation : Marc-Olivier Méhu
Soutien technique & logistique : Manuel Goepfert

Contact : metmap@orbifly.com




SOURCES & CREDITS :

   NOAA